sensor_id;sensor_type;location;lat;lon;timestamp;temperature;humidity
37844;DHT22;63793;57.632;18.292;2022-12-07T00:01:42;2.30;99.90
37844;DHT22;63793;57.632;18.292;2022-12-07T00:04:12;2.30;99.90
37844;DHT22;63793;57.632;18.292;2022-12-07T00:06:44;2.30;99.90
37844;DHT22;63793;57.632;18.292;2022-12-07T00:09:14;2.30;99.90
37844;DHT22;63793;57.632;18.292;2022-12-07T00:11:42;2.30;99.90
37844;DHT22;63793;57.632;18.292;2022-12-07T00:14:14;2.20;99.90
37844;DHT22;63793;57.632;18.292;2022-12-07T00:16:42;2.20;99.90
37844;DHT22;63793;57.632;18.292;2022-12-07T00:19:11;2.20;99.90
37844;DHT22;63793;57.632;18.292;2022-12-07T00:21:39;2.20;99.90
37844;DHT22;63793;57.632;18.292;2022-12-07T00:24:06;2.20;99.90
37844;DHT22;63793;57.632;18.292;2022-12-07T00:26:35;2.20;99.90
37844;DHT22;63793;57.632;18.292;2022-12-07T00:29:06;2.20;99.90
37844;DHT22;63793;57.632;18.292;2022-12-07T00:31:35;2.20;99.90
37844;DHT22;63793;57.632;18.292;2022-12-07T00:34:07;2.20;99.90
37844;DHT22;63793;57.632;18.292;2022-12-07T00:36:34;2.20;99.90
37844;DHT22;63793;57.632;18.292;2022-12-07T00:39:01;2.10;99.90
37844;DHT22;63793;57.632;18.292;2022-12-07T00:41:29;2.10;99.90
37844;DHT22;63793;57.632;18.292;2022-12-07T00:43:57;2.10;99.90
37844;DHT22;63793;57.632;18.292;2022-12-07T00:46:25;2.00;99.90
37844;DHT22;63793;57.632;18.292;2022-12-07T00:48:53;2.00;99.90
37844;DHT22;63793;57.632;18.292;2022-12-07T00:51:22;2.00;99.90
37844;DHT22;63793;57.632;18.292;2022-12-07T00:53:49;2.00;99.90
37844;DHT22;63793;57.632;18.292;2022-12-07T00:56:25;2.00;99.90
37844;DHT22;63793;57.632;18.292;2022-12-07T00:58:57;2.00;99.90
37844;DHT22;63793;57.632;18.292;2022-12-07T01:01:26;2.00;99.90
37844;DHT22;63793;57.632;18.292;2022-12-07T01:03:54;2.00;99.90
37844;DHT22;63793;57.632;18.292;2022-12-07T01:06:25;2.00;99.90
37844;DHT22;63793;57.632;18.292;2022-12-07T01:08:52;2.00;99.90
37844;DHT22;63793;57.632;18.292;2022-12-07T01:11:26;2.00;99.90
37844;DHT22;63793;57.632;18.292;2022-12-07T01:13:55;2.00;99.90
37844;DHT22;63793;57.632;18.292;2022-12-07T01:16:24;2.00;99.90
37844;DHT22;63793;57.632;18.292;2022-12-07T01:18:52;2.00;99.90
37844;DHT22;63793;57.632;18.292;2022-12-07T01:21:23;1.90;99.90
37844;DHT22;63793;57.632;18.292;2022-12-07T01:23:51;1.90;99.90
37844;DHT22;63793;57.632;18.292;2022-12-07T01:26:20;1.90;99.90
37844;DHT22;63793;57.632;18.292;2022-12-07T01:28:48;1.90;99.90
37844;DHT22;63793;57.632;18.292;2022-12-07T01:31:17;1.90;99.90
37844;DHT22;63793;57.632;18.292;2022-12-07T01:33:47;1.90;99.90
37844;DHT22;63793;57.632;18.292;2022-12-07T01:38:49;1.90;99.90
37844;DHT22;63793;57.632;18.292;2022-12-07T01:41:20;1.90;99.90
37844;DHT22;63793;57.632;18.292;2022-12-07T01:44:26;1.90;99.90
37844;DHT22;63793;57.632;18.292;2022-12-07T01:47:00;1.90;99.90
37844;DHT22;63793;57.632;18.292;2022-12-07T01:52:28;1.90;99.90
37844;DHT22;63793;57.632;18.292;2022-12-07T01:55:01;2.00;99.90
37844;DHT22;63793;57.632;18.292;2022-12-07T01:57:30;2.20;99.90
37844;DHT22;63793;57.632;18.292;2022-12-07T01:59:57;2.30;99.90
37844;DHT22;63793;57.632;18.292;2022-12-07T02:05:28;2.40;99.90
37844;DHT22;63793;57.632;18.292;2022-12-07T02:07:56;2.40;99.90
37844;DHT22;63793;57.632;18.292;2022-12-07T02:10:27;2.40;99.90
37844;DHT22;63793;57.632;18.292;2022-12-07T02:13:19;2.30;99.90
37844;DHT22;63793;57.632;18.292;2022-12-07T02:16:17;2.30;99.90
37844;DHT22;63793;57.632;18.292;2022-12-07T02:27:28;2.30;99.90
37844;DHT22;63793;57.632;18.292;2022-12-07T02:32:56;2.30;99.90
37844;DHT22;63793;57.632;18.292;2022-12-07T02:35:30;2.30;99.90
37844;DHT22;63793;57.632;18.292;2022-12-07T02:38:26;2.30;99.90
37844;DHT22;63793;57.632;18.292;2022-12-07T02:41:02;2.20;99.90
37844;DHT22;63793;57.632;18.292;2022-12-07T02:43:35;2.20;99.90
37844;DHT22;63793;57.632;18.292;2022-12-07T02:46:08;2.10;99.90
37844;DHT22;63793;57.632;18.292;2022-12-07T02:48:37;2.20;99.90
37844;DHT22;63793;57.632;18.292;2022-12-07T02:51:05;2.30;99.90
37844;DHT22;63793;57.632;18.292;2022-12-07T02:53:36;2.30;99.90
37844;DHT22;63793;57.632;18.292;2022-12-07T03:01:38;2.20;99.90
37844;DHT22;63793;57.632;18.292;2022-12-07T03:06:57;2.10;99.90
37844;DHT22;63793;57.632;18.292;2022-12-07T03:09:36;2.10;99.90
37844;DHT22;63793;57.632;18.292;2022-12-07T03:12:12;2.00;99.90
37844;DHT22;63793;57.632;18.292;2022-12-07T03:14:47;2.00;99.90
37844;DHT22;63793;57.632;18.292;2022-12-07T03:17:20;1.90;99.90
37844;DHT22;63793;57.632;18.292;2022-12-07T03:19:48;1.90;99.90
37844;DHT22;63793;57.632;18.292;2022-12-07T03:22:16;1.80;99.90
37844;DHT22;63793;57.632;18.292;2022-12-07T03:24:53;1.80;99.90
37844;DHT22;63793;57.632;18.292;2022-12-07T03:27:31;1.80;99.90
37844;DHT22;63793;57.632;18.292;2022-12-07T03:30:05;1.80;99.90
37844;DHT22;63793;57.632;18.292;2022-12-07T03:32:50;1.80;99.90
37844;DHT22;63793;57.632;18.292;2022-12-07T03:35:36;1.70;99.90
37844;DHT22;63793;57.632;18.292;2022-12-07T03:38:08;1.70;99.90
37844;DHT22;63793;57.632;18.292;2022-12-07T03:43:30;2.10;99.90
37844;DHT22;63793;57.632;18.292;2022-12-07T03:51:48;2.30;99.90
37844;DHT22;63793;57.632;18.292;2022-12-07T03:54:34;2.30;99.90
37844;DHT22;63793;57.632;18.292;2022-12-07T03:57:04;2.30;99.90
37844;DHT22;63793;57.632;18.292;2022-12-07T03:59:32;2.30;99.90
37844;DHT22;63793;57.632;18.292;2022-12-07T04:02:06;2.30;99.90
37844;DHT22;63793;57.632;18.292;2022-12-07T04:04:34;2.30;99.90
37844;DHT22;63793;57.632;18.292;2022-12-07T04:07:01;2.20;99.90
37844;DHT22;63793;57.632;18.292;2022-12-07T04:09:28;2.20;99.90
37844;DHT22;63793;57.632;18.292;2022-12-07T04:11:55;2.20;99.90
37844;DHT22;63793;57.632;18.292;2022-12-07T04:14:22;2.10;99.90
37844;DHT22;63793;57.632;18.292;2022-12-07T04:16:52;2.10;99.90
37844;DHT22;63793;57.632;18.292;2022-12-07T04:19:22;2.10;99.90
37844;DHT22;63793;57.632;18.292;2022-12-07T04:21:50;2.10;99.90
37844;DHT22;63793;57.632;18.292;2022-12-07T04:24:17;2.10;99.90
37844;DHT22;63793;57.632;18.292;2022-12-07T04:26:44;2.00;99.90
37844;DHT22;63793;57.632;18.292;2022-12-07T04:29:12;2.00;99.90
37844;DHT22;63793;57.632;18.292;2022-12-07T04:31:39;2.00;99.90
37844;DHT22;63793;57.632;18.292;2022-12-07T04:34:06;1.90;99.90
37844;DHT22;63793;57.632;18.292;2022-12-07T04:36:34;1.90;99.90
37844;DHT22;63793;57.632;18.292;2022-12-07T04:39:01;1.90;99.90
37844;DHT22;63793;57.632;18.292;2022-12-07T04:41:28;1.80;99.90
37844;DHT22;63793;57.632;18.292;2022-12-07T04:44:03;1.80;99.90
37844;DHT22;63793;57.632;18.292;2022-12-07T04:46:31;1.80;99.90
37844;DHT22;63793;57.632;18.292;2022-12-07T04:48:58;1.70;99.90
37844;DHT22;63793;57.632;18.292;2022-12-07T04:51:28;1.70;99.90
37844;DHT22;63793;57.632;18.292;2022-12-07T04:53:55;1.70;99.90
37844;DHT22;63793;57.632;18.292;2022-12-07T04:56:23;1.70;99.90
37844;DHT22;63793;57.632;18.292;2022-12-07T04:58:52;1.80;99.90
37844;DHT22;63793;57.632;18.292;2022-12-07T05:01:21;1.70;99.90
37844;DHT22;63793;57.632;18.292;2022-12-07T05:03:49;1.70;99.90
37844;DHT22;63793;57.632;18.292;2022-12-07T05:06:16;1.70;99.90
37844;DHT22;63793;57.632;18.292;2022-12-07T05:08:43;1.70;99.90
37844;DHT22;63793;57.632;18.292;2022-12-07T05:11:11;1.70;99.90
37844;DHT22;63793;57.632;18.292;2022-12-07T05:14:01;1.70;99.90
37844;DHT22;63793;57.632;18.292;2022-12-07T05:16:28;1.60;99.90
37844;DHT22;63793;57.632;18.292;2022-12-07T05:18:55;1.60;99.90
37844;DHT22;63793;57.632;18.292;2022-12-07T05:21:22;1.60;99.90
37844;DHT22;63793;57.632;18.292;2022-12-07T05:23:49;1.60;99.90
37844;DHT22;63793;57.632;18.292;2022-12-07T05:26:16;1.60;99.90
37844;DHT22;63793;57.632;18.292;2022-12-07T05:28:43;1.60;99.90
37844;DHT22;63793;57.632;18.292;2022-12-07T05:31:10;1.60;99.90
37844;DHT22;63793;57.632;18.292;2022-12-07T05:33:37;1.60;99.90
37844;DHT22;63793;57.632;18.292;2022-12-07T05:36:04;1.60;99.90
37844;DHT22;63793;57.632;18.292;2022-12-07T05:38:34;1.60;99.90
37844;DHT22;63793;57.632;18.292;2022-12-07T05:41:05;1.60;99.90
37844;DHT22;63793;57.632;18.292;2022-12-07T05:43:33;1.60;99.90
37844;DHT22;63793;57.632;18.292;2022-12-07T05:46:00;1.60;99.90
37844;DHT22;63793;57.632;18.292;2022-12-07T05:48:27;1.60;99.90
37844;DHT22;63793;57.632;18.292;2022-12-07T05:50:54;1.60;99.90
37844;DHT22;63793;57.632;18.292;2022-12-07T05:53:20;1.60;99.90
37844;DHT22;63793;57.632;18.292;2022-12-07T05:55:49;1.60;99.90
37844;DHT22;63793;57.632;18.292;2022-12-07T05:58:15;1.50;99.90
37844;DHT22;63793;57.632;18.292;2022-12-07T06:01:01;1.40;99.90
37844;DHT22;63793;57.632;18.292;2022-12-07T06:03:28;1.40;99.90
37844;DHT22;63793;57.632;18.292;2022-12-07T06:05:55;1.40;99.90
37844;DHT22;63793;57.632;18.292;2022-12-07T06:08:22;1.30;99.90
37844;DHT22;63793;57.632;18.292;2022-12-07T06:10:49;1.30;99.90
37844;DHT22;63793;57.632;18.292;2022-12-07T06:13:38;1.30;99.90
37844;DHT22;63793;57.632;18.292;2022-12-07T06:16:12;1.30;99.90
37844;DHT22;63793;57.632;18.292;2022-12-07T06:18:39;1.30;99.90
37844;DHT22;63793;57.632;18.292;2022-12-07T06:21:06;1.30;99.90
37844;DHT22;63793;57.632;18.292;2022-12-07T06:23:33;1.30;99.90
37844;DHT22;63793;57.632;18.292;2022-12-07T06:26:00;1.30;99.90
37844;DHT22;63793;57.632;18.292;2022-12-07T06:28:27;1.30;99.90
37844;DHT22;63793;57.632;18.292;2022-12-07T06:31:01;1.20;99.90
37844;DHT22;63793;57.632;18.292;2022-12-07T06:33:28;1.20;99.90
37844;DHT22;63793;57.632;18.292;2022-12-07T06:35:55;1.20;99.90
37844;DHT22;63793;57.632;18.292;2022-12-07T06:38:22;1.30;99.90
37844;DHT22;63793;57.632;18.292;2022-12-07T06:40:49;1.30;99.90
37844;DHT22;63793;57.632;18.292;2022-12-07T06:43:16;1.20;99.90
37844;DHT22;63793;57.632;18.292;2022-12-07T06:45:43;1.20;99.90
37844;DHT22;63793;57.632;18.292;2022-12-07T06:48:10;1.20;99.90
37844;DHT22;63793;57.632;18.292;2022-12-07T06:50:37;1.20;99.90
37844;DHT22;63793;57.632;18.292;2022-12-07T06:53:04;1.20;99.90
37844;DHT22;63793;57.632;18.292;2022-12-07T06:55:31;1.20;99.90
37844;DHT22;63793;57.632;18.292;2022-12-07T06:57:58;1.20;99.90
37844;DHT22;63793;57.632;18.292;2022-12-07T07:00:24;1.20;99.90
37844;DHT22;63793;57.632;18.292;2022-12-07T07:02:51;1.20;99.90
37844;DHT22;63793;57.632;18.292;2022-12-07T07:05:18;1.20;99.90
37844;DHT22;63793;57.632;18.292;2022-12-07T07:07:51;1.20;99.90
37844;DHT22;63793;57.632;18.292;2022-12-07T07:10:38;1.30;99.90
37844;DHT22;63793;57.632;18.292;2022-12-07T07:13:05;1.30;99.90
37844;DHT22;63793;57.632;18.292;2022-12-07T07:15:33;1.30;99.90
37844;DHT22;63793;57.632;18.292;2022-12-07T07:18:00;1.20;99.90
37844;DHT22;63793;57.632;18.292;2022-12-07T07:20:33;1.30;99.90
37844;DHT22;63793;57.632;18.292;2022-12-07T07:23:00;1.20;99.90
37844;DHT22;63793;57.632;18.292;2022-12-07T07:25:27;1.20;99.90
37844;DHT22;63793;57.632;18.292;2022-12-07T07:27:55;1.20;99.90
37844;DHT22;63793;57.632;18.292;2022-12-07T07:30:22;1.30;99.90
37844;DHT22;63793;57.632;18.292;2022-12-07T07:32:48;1.30;99.90
37844;DHT22;63793;57.632;18.292;2022-12-07T07:35:15;1.30;99.90
37844;DHT22;63793;57.632;18.292;2022-12-07T07:37:42;1.30;99.90
37844;DHT22;63793;57.632;18.292;2022-12-07T07:40:09;1.30;99.90
37844;DHT22;63793;57.632;18.292;2022-12-07T07:42:36;1.30;99.90
37844;DHT22;63793;57.632;18.292;2022-12-07T07:45:04;1.30;99.90
37844;DHT22;63793;57.632;18.292;2022-12-07T07:47:31;1.30;99.90
37844;DHT22;63793;57.632;18.292;2022-12-07T07:49:58;1.30;99.90
37844;DHT22;63793;57.632;18.292;2022-12-07T07:52:25;1.30;99.90
37844;DHT22;63793;57.632;18.292;2022-12-07T07:54:52;1.30;99.90
37844;DHT22;63793;57.632;18.292;2022-12-07T07:57:18;1.40;99.90
37844;DHT22;63793;57.632;18.292;2022-12-07T07:59:45;1.40;99.90
37844;DHT22;63793;57.632;18.292;2022-12-07T08:02:15;1.40;99.90
37844;DHT22;63793;57.632;18.292;2022-12-07T08:04:42;1.40;99.90
37844;DHT22;63793;57.632;18.292;2022-12-07T08:07:09;1.40;99.90
37844;DHT22;63793;57.632;18.292;2022-12-07T08:09:37;1.40;99.90
37844;DHT22;63793;57.632;18.292;2022-12-07T08:12:04;1.50;99.90
37844;DHT22;63793;57.632;18.292;2022-12-07T08:14:31;1.50;99.90
37844;DHT22;63793;57.632;18.292;2022-12-07T08:16:58;1.50;99.90
37844;DHT22;63793;57.632;18.292;2022-12-07T08:19:26;1.50;99.90
37844;DHT22;63793;57.632;18.292;2022-12-07T08:21:52;1.50;99.90
37844;DHT22;63793;57.632;18.292;2022-12-07T08:24:19;1.50;99.90
37844;DHT22;63793;57.632;18.292;2022-12-07T08:26:46;1.50;99.90
37844;DHT22;63793;57.632;18.292;2022-12-07T08:29:13;1.60;99.90
37844;DHT22;63793;57.632;18.292;2022-12-07T08:31:40;1.60;99.90
37844;DHT22;63793;57.632;18.292;2022-12-07T08:34:07;1.60;99.90
37844;DHT22;63793;57.632;18.292;2022-12-07T08:36:33;1.60;99.90
37844;DHT22;63793;57.632;18.292;2022-12-07T08:39:00;1.70;99.90
37844;DHT22;63793;57.632;18.292;2022-12-07T08:41:47;1.70;99.90
37844;DHT22;63793;57.632;18.292;2022-12-07T08:44:14;1.60;99.90
37844;DHT22;63793;57.632;18.292;2022-12-07T08:46:46;1.60;99.90
37844;DHT22;63793;57.632;18.292;2022-12-07T08:51:41;1.70;99.90
37844;DHT22;63793;57.632;18.292;2022-12-07T08:54:11;1.60;99.90
37844;DHT22;63793;57.632;18.292;2022-12-07T08:56:40;1.60;99.90
37844;DHT22;63793;57.632;18.292;2022-12-07T08:59:08;1.60;99.90
37844;DHT22;63793;57.632;18.292;2022-12-07T09:01:35;1.70;99.90
37844;DHT22;63793;57.632;18.292;2022-12-07T09:04:02;1.70;99.90
37844;DHT22;63793;57.632;18.292;2022-12-07T09:06:29;1.70;99.90
37844;DHT22;63793;57.632;18.292;2022-12-07T09:08:58;1.60;99.90
37844;DHT22;63793;57.632;18.292;2022-12-07T09:11:27;1.60;99.90
37844;DHT22;63793;57.632;18.292;2022-12-07T09:13:55;1.60;99.90
37844;DHT22;63793;57.632;18.292;2022-12-07T09:16:22;1.60;99.90
37844;DHT22;63793;57.632;18.292;2022-12-07T09:18:49;1.60;99.90
37844;DHT22;63793;57.632;18.292;2022-12-07T09:21:16;1.50;99.90
37844;DHT22;63793;57.632;18.292;2022-12-07T09:23:43;1.50;99.90
37844;DHT22;63793;57.632;18.292;2022-12-07T09:26:10;1.40;99.90
37844;DHT22;63793;57.632;18.292;2022-12-07T09:28:37;1.40;99.90
37844;DHT22;63793;57.632;18.292;2022-12-07T09:31:05;1.40;99.90
37844;DHT22;63793;57.632;18.292;2022-12-07T09:33:58;1.40;99.90
37844;DHT22;63793;57.632;18.292;2022-12-07T09:36:26;1.50;99.90
37844;DHT22;63793;57.632;18.292;2022-12-07T09:38:53;1.50;99.90
37844;DHT22;63793;57.632;18.292;2022-12-07T09:41:21;1.50;99.90
37844;DHT22;63793;57.632;18.292;2022-12-07T09:43:50;1.50;99.90
37844;DHT22;63793;57.632;18.292;2022-12-07T09:46:19;1.50;99.90
37844;DHT22;63793;57.632;18.292;2022-12-07T09:48:48;1.50;99.90
37844;DHT22;63793;57.632;18.292;2022-12-07T09:53:54;1.40;99.90
37844;DHT22;63793;57.632;18.292;2022-12-07T09:56:22;1.40;99.90
37844;DHT22;63793;57.632;18.292;2022-12-07T09:59:00;1.40;99.90
37844;DHT22;63793;57.632;18.292;2022-12-07T10:01:33;1.30;99.90
37844;DHT22;63793;57.632;18.292;2022-12-07T10:04:22;1.30;99.90
37844;DHT22;63793;57.632;18.292;2022-12-07T10:06:51;1.30;99.90
37844;DHT22;63793;57.632;18.292;2022-12-07T10:09:21;1.30;99.90
37844;DHT22;63793;57.632;18.292;2022-12-07T10:12:01;1.30;99.90
37844;DHT22;63793;57.632;18.292;2022-12-07T10:14:31;1.30;99.90
37844;DHT22;63793;57.632;18.292;2022-12-07T10:25:27;1.40;99.90
37844;DHT22;63793;57.632;18.292;2022-12-07T10:28:21;1.40;99.90
37844;DHT22;63793;57.632;18.292;2022-12-07T10:30:50;1.50;99.90
37844;DHT22;63793;57.632;18.292;2022-12-07T10:33:40;1.50;99.90
37844;DHT22;63793;57.632;18.292;2022-12-07T10:36:22;1.50;99.90
37844;DHT22;63793;57.632;18.292;2022-12-07T10:38:52;1.50;99.90
37844;DHT22;63793;57.632;18.292;2022-12-07T10:41:19;1.50;99.90
37844;DHT22;63793;57.632;18.292;2022-12-07T10:43:52;1.50;99.90
37844;DHT22;63793;57.632;18.292;2022-12-07T10:46:46;1.50;99.90
37844;DHT22;63793;57.632;18.292;2022-12-07T11:00:15;1.60;99.90
37844;DHT22;63793;57.632;18.292;2022-12-07T11:08:37;1.40;99.90
37844;DHT22;63793;57.632;18.292;2022-12-07T11:17:05;1.20;99.90
37844;DHT22;63793;57.632;18.292;2022-12-07T11:20:02;1.20;99.90
37844;DHT22;63793;57.632;18.292;2022-12-07T11:25:32;1.20;99.90
37844;DHT22;63793;57.632;18.292;2022-12-07T11:30:42;1.20;99.90
37844;DHT22;63793;57.632;18.292;2022-12-07T11:41:45;1.20;99.90
37844;DHT22;63793;57.632;18.292;2022-12-07T11:50:03;1.20;99.90
37844;DHT22;63793;57.632;18.292;2022-12-07T11:53:05;1.20;99.90
37844;DHT22;63793;57.632;18.292;2022-12-07T12:01:24;1.20;99.90
37844;DHT22;63793;57.632;18.292;2022-12-07T12:04:00;1.20;99.90
37844;DHT22;63793;57.632;18.292;2022-12-07T12:06:28;1.30;99.90
37844;DHT22;63793;57.632;18.292;2022-12-07T12:09:15;1.30;99.90
37844;DHT22;63793;57.632;18.292;2022-12-07T12:20:30;1.40;99.90
37844;DHT22;63793;57.632;18.292;2022-12-07T12:28:24;1.50;99.90
37844;DHT22;63793;57.632;18.292;2022-12-07T12:33:33;1.50;99.90
37844;DHT22;63793;57.632;18.292;2022-12-07T12:36:22;1.50;99.90
37844;DHT22;63793;57.632;18.292;2022-12-07T13:00:00;1.50;99.90
37844;DHT22;63793;57.632;18.292;2022-12-07T13:02:34;1.40;99.90
37844;DHT22;63793;57.632;18.292;2022-12-07T13:05:24;1.40;99.90
37844;DHT22;63793;57.632;18.292;2022-12-07T13:15:38;1.50;99.90
37844;DHT22;63793;57.632;18.292;2022-12-07T13:20:58;1.30;99.90
37844;DHT22;63793;57.632;18.292;2022-12-07T13:31:40;1.20;99.90
37844;DHT22;63793;57.632;18.292;2022-12-07T13:34:40;1.20;99.90
37844;DHT22;63793;57.632;18.292;2022-12-07T13:37:30;1.20;99.90
37844;DHT22;63793;57.632;18.292;2022-12-07T13:40:21;1.20;99.90
37844;DHT22;63793;57.632;18.292;2022-12-07T13:42:59;1.30;99.90
37844;DHT22;63793;57.632;18.292;2022-12-07T13:45:32;1.20;99.90
37844;DHT22;63793;57.632;18.292;2022-12-07T13:48:30;1.20;99.90
37844;DHT22;63793;57.632;18.292;2022-12-07T13:51:00;1.20;99.90
37844;DHT22;63793;57.632;18.292;2022-12-07T13:53:28;1.20;99.90
37844;DHT22;63793;57.632;18.292;2022-12-07T13:55:58;1.10;99.90
37844;DHT22;63793;57.632;18.292;2022-12-07T13:58:27;1.10;99.90
37844;DHT22;63793;57.632;18.292;2022-12-07T14:00:56;1.10;99.90
37844;DHT22;63793;57.632;18.292;2022-12-07T14:03:30;1.10;99.90
37844;DHT22;63793;57.632;18.292;2022-12-07T14:06:15;1.20;99.90
37844;DHT22;63793;57.632;18.292;2022-12-07T14:08:42;1.20;99.90
37844;DHT22;63793;57.632;18.292;2022-12-07T14:11:18;1.20;99.90
37844;DHT22;63793;57.632;18.292;2022-12-07T14:14:01;1.20;99.90
37844;DHT22;63793;57.632;18.292;2022-12-07T14:16:35;1.10;99.90
37844;DHT22;63793;57.632;18.292;2022-12-07T14:22:33;1.10;99.90
37844;DHT22;63793;57.632;18.292;2022-12-07T14:25:16;1.10;99.90
37844;DHT22;63793;57.632;18.292;2022-12-07T14:27:55;1.10;99.90
37844;DHT22;63793;57.632;18.292;2022-12-07T14:30:28;1.00;99.90
37844;DHT22;63793;57.632;18.292;2022-12-07T14:32:59;1.00;99.90
37844;DHT22;63793;57.632;18.292;2022-12-07T14:35:27;1.00;99.90
37844;DHT22;63793;57.632;18.292;2022-12-07T14:37:54;1.00;99.90
37844;DHT22;63793;57.632;18.292;2022-12-07T14:40:23;1.00;99.90
37844;DHT22;63793;57.632;18.292;2022-12-07T14:43:00;1.00;99.90
37844;DHT22;63793;57.632;18.292;2022-12-07T14:45:33;1.00;99.90
37844;DHT22;63793;57.632;18.292;2022-12-07T14:48:00;1.00;99.90
37844;DHT22;63793;57.632;18.292;2022-12-07T14:50:52;1.00;99.90
37844;DHT22;63793;57.632;18.292;2022-12-07T14:53:43;1.00;99.90
37844;DHT22;63793;57.632;18.292;2022-12-07T14:56:15;1.10;99.90
37844;DHT22;63793;57.632;18.292;2022-12-07T14:58:42;1.10;99.90
37844;DHT22;63793;57.632;18.292;2022-12-07T15:01:09;1.00;99.90
37844;DHT22;63793;57.632;18.292;2022-12-07T15:03:36;1.00;99.90
37844;DHT22;63793;57.632;18.292;2022-12-07T15:06:05;1.10;99.90
37844;DHT22;63793;57.632;18.292;2022-12-07T15:08:33;1.00;99.90
37844;DHT22;63793;57.632;18.292;2022-12-07T15:11:00;1.00;99.90
37844;DHT22;63793;57.632;18.292;2022-12-07T15:13:27;1.00;99.90
37844;DHT22;63793;57.632;18.292;2022-12-07T15:16:15;1.00;99.90
37844;DHT22;63793;57.632;18.292;2022-12-07T15:18:44;1.00;99.90
37844;DHT22;63793;57.632;18.292;2022-12-07T15:21:31;1.00;99.90
37844;DHT22;63793;57.632;18.292;2022-12-07T15:23:58;1.00;99.90
37844;DHT22;63793;57.632;18.292;2022-12-07T15:26:24;1.00;99.90
37844;DHT22;63793;57.632;18.292;2022-12-07T15:28:53;1.00;99.90
37844;DHT22;63793;57.632;18.292;2022-12-07T15:31:20;1.00;99.90
37844;DHT22;63793;57.632;18.292;2022-12-07T15:34:07;1.00;99.90
37844;DHT22;63793;57.632;18.292;2022-12-07T15:36:34;1.10;99.90
37844;DHT22;63793;57.632;18.292;2022-12-07T15:39:01;1.10;99.90
37844;DHT22;63793;57.632;18.292;2022-12-07T15:41:40;1.00;99.90
37844;DHT22;63793;57.632;18.292;2022-12-07T15:44:11;1.10;99.90
37844;DHT22;63793;57.632;18.292;2022-12-07T15:46:57;1.10;99.90
37844;DHT22;63793;57.632;18.292;2022-12-07T15:49:24;1.10;99.90
37844;DHT22;63793;57.632;18.292;2022-12-07T15:51:51;1.00;99.90
37844;DHT22;63793;57.632;18.292;2022-12-07T15:54:24;1.00;99.90
37844;DHT22;63793;57.632;18.292;2022-12-07T15:56:51;0.90;99.90
37844;DHT22;63793;57.632;18.292;2022-12-07T15:59:18;1.00;99.90
37844;DHT22;63793;57.632;18.292;2022-12-07T16:01:45;1.00;99.90
37844;DHT22;63793;57.632;18.292;2022-12-07T16:04:13;1.00;99.90
37844;DHT22;63793;57.632;18.292;2022-12-07T16:06:40;1.00;99.90
37844;DHT22;63793;57.632;18.292;2022-12-07T16:09:07;1.00;99.90
37844;DHT22;63793;57.632;18.292;2022-12-07T16:11:34;1.00;99.90
37844;DHT22;63793;57.632;18.292;2022-12-07T16:14:01;1.00;99.90
37844;DHT22;63793;57.632;18.292;2022-12-07T16:16:28;1.00;99.90
37844;DHT22;63793;57.632;18.292;2022-12-07T16:18:55;1.00;99.90
37844;DHT22;63793;57.632;18.292;2022-12-07T16:21:22;1.00;99.90
37844;DHT22;63793;57.632;18.292;2022-12-07T16:23:51;0.90;99.90
37844;DHT22;63793;57.632;18.292;2022-12-07T16:26:20;0.90;99.90
37844;DHT22;63793;57.632;18.292;2022-12-07T16:28:49;0.90;99.90
37844;DHT22;63793;57.632;18.292;2022-12-07T16:31:18;1.00;99.90
37844;DHT22;63793;57.632;18.292;2022-12-07T16:33:46;1.00;99.90
37844;DHT22;63793;57.632;18.292;2022-12-07T16:36:13;1.00;99.90
37844;DHT22;63793;57.632;18.292;2022-12-07T16:39:04;1.10;99.90
37844;DHT22;63793;57.632;18.292;2022-12-07T16:41:31;1.10;99.90
37844;DHT22;63793;57.632;18.292;2022-12-07T16:44:03;1.10;99.90
37844;DHT22;63793;57.632;18.292;2022-12-07T16:46:35;1.00;99.90
37844;DHT22;63793;57.632;18.292;2022-12-07T16:49:03;1.00;99.90
37844;DHT22;63793;57.632;18.292;2022-12-07T16:51:30;1.00;99.90
37844;DHT22;63793;57.632;18.292;2022-12-07T16:53:57;1.00;99.90
37844;DHT22;63793;57.632;18.292;2022-12-07T16:56:25;1.00;99.90
37844;DHT22;63793;57.632;18.292;2022-12-07T16:58:53;1.00;99.90
37844;DHT22;63793;57.632;18.292;2022-12-07T17:01:22;1.00;99.90
37844;DHT22;63793;57.632;18.292;2022-12-07T17:03:49;1.00;99.90
37844;DHT22;63793;57.632;18.292;2022-12-07T17:06:18;1.00;99.90
37844;DHT22;63793;57.632;18.292;2022-12-07T17:08:46;1.00;99.90
37844;DHT22;63793;57.632;18.292;2022-12-07T17:11:24;1.00;99.90
37844;DHT22;63793;57.632;18.292;2022-12-07T17:13:52;1.00;99.90
37844;DHT22;63793;57.632;18.292;2022-12-07T17:16:38;1.00;99.90
37844;DHT22;63793;57.632;18.292;2022-12-07T17:19:11;1.00;99.90
37844;DHT22;63793;57.632;18.292;2022-12-07T17:21:38;1.00;99.90
37844;DHT22;63793;57.632;18.292;2022-12-07T17:24:07;1.00;99.90
37844;DHT22;63793;57.632;18.292;2022-12-07T17:26:35;1.00;99.90
37844;DHT22;63793;57.632;18.292;2022-12-07T17:29:03;1.00;99.90
37844;DHT22;63793;57.632;18.292;2022-12-07T17:31:30;1.10;99.90
37844;DHT22;63793;57.632;18.292;2022-12-07T17:33:59;1.00;99.90
37844;DHT22;63793;57.632;18.292;2022-12-07T17:36:29;1.10;99.90
37844;DHT22;63793;57.632;18.292;2022-12-07T17:38:56;1.10;99.90
37844;DHT22;63793;57.632;18.292;2022-12-07T17:41:25;1.10;99.90
37844;DHT22;63793;57.632;18.292;2022-12-07T17:44:17;1.10;99.90
37844;DHT22;63793;57.632;18.292;2022-12-07T17:46:45;1.10;99.90
37844;DHT22;63793;57.632;18.292;2022-12-07T17:49:13;1.20;99.90
37844;DHT22;63793;57.632;18.292;2022-12-07T17:51:40;1.20;99.90
37844;DHT22;63793;57.632;18.292;2022-12-07T17:54:26;1.20;99.90
37844;DHT22;63793;57.632;18.292;2022-12-07T17:56:53;1.10;99.90
37844;DHT22;63793;57.632;18.292;2022-12-07T17:59:20;1.10;99.90
37844;DHT22;63793;57.632;18.292;2022-12-07T18:01:46;1.10;99.90
37844;DHT22;63793;57.632;18.292;2022-12-07T18:04:14;1.10;99.90
37844;DHT22;63793;57.632;18.292;2022-12-07T18:06:41;1.10;99.90
37844;DHT22;63793;57.632;18.292;2022-12-07T18:09:14;1.10;99.90
37844;DHT22;63793;57.632;18.292;2022-12-07T18:11:41;1.10;99.90
37844;DHT22;63793;57.632;18.292;2022-12-07T18:14:08;1.10;99.90
37844;DHT22;63793;57.632;18.292;2022-12-07T18:16:35;1.10;99.90
37844;DHT22;63793;57.632;18.292;2022-12-07T18:19:03;1.10;99.90
37844;DHT22;63793;57.632;18.292;2022-12-07T18:21:31;1.20;99.90
37844;DHT22;63793;57.632;18.292;2022-12-07T18:24:00;1.20;99.90
37844;DHT22;63793;57.632;18.292;2022-12-07T18:26:29;1.20;99.90
37844;DHT22;63793;57.632;18.292;2022-12-07T18:29:00;1.20;99.90
37844;DHT22;63793;57.632;18.292;2022-12-07T18:31:27;1.20;99.90
37844;DHT22;63793;57.632;18.292;2022-12-07T18:33:55;1.30;99.90